Time;durP1;ratioP1;P1;durP2;ratioP2;P2;SDS_P1;SDS_P2;PMS_P1;PMS_P2;Temp;Humidity;BMP_temperature;BMP_pressure;BME280_temperature;BME280_humidity;BME280_pressure;Samples;Min_cycle;Max_cycle;Signal;HPM_P1;HPM_P2
2021/07/05 00:01:08;;;;;;;10.15;7.35;;;14.20;99.90;;;;;;5095994;28;20024;-67
2021/07/05 00:03:34;;;;;;;9.65;7.55;;;14.20;99.90;;;;;;5094547;28;20090;-66
2021/07/05 00:05:59;;;;;;;11.18;7.38;;;14.20;99.90;;;;;;5094089;28;20033;-66
2021/07/05 00:08:25;;;;;;;15.10;8.82;;;14.10;99.90;;;;;;5095576;28;20035;-67
2021/07/05 00:10:51;;;;;;;12.52;7.38;;;14.10;99.90;;;;;;5095807;28;20030;-67
2021/07/05 00:13:16;;;;;;;12.60;7.05;;;14.10;99.90;;;;;;5095423;28;20457;-66
2021/07/05 00:15:42;;;;;;;13.30;7.65;;;14.00;99.90;;;;;;5095730;28;20410;-67
2021/07/05 00:18:09;;;;;;;10.82;8.45;;;14.00;99.90;;;;;;5095654;28;20477;-67
2021/07/05 00:20:38;;;;;;;14.68;9.40;;;14.00;99.90;;;;;;5095637;28;20454;-67
2021/07/05 00:23:05;;;;;;;12.40;9.13;;;13.90;99.90;;;;;;5095463;28;20032;-66
2021/07/05 00:25:31;;;;;;;14.15;9.73;;;13.90;99.90;;;;;;5094993;28;20028;-66
2021/07/05 00:27:57;;;;;;;12.50;8.35;;;13.90;99.90;;;;;;5094310;28;20027;-66
2021/07/05 00:30:23;;;;;;;18.92;9.35;;;13.90;99.90;;;;;;5095146;28;20477;-66
2021/07/05 00:32:50;;;;;;;15.60;9.27;;;13.90;99.90;;;;;;5095055;28;20028;-67
2021/07/05 00:35:17;;;;;;;11.77;9.25;;;13.90;99.90;;;;;;5095320;28;20024;-67
2021/07/05 00:37:43;;;;;;;12.55;8.93;;;13.80;99.90;;;;;;5093954;28;20462;-67
2021/07/05 00:40:10;;;;;;;16.88;8.80;;;13.80;99.90;;;;;;5095268;28;20020;-66
2021/07/05 00:42:36;;;;;;;16.30;8.50;;;13.70;99.90;;;;;;5094907;28;20020;-66
2021/07/05 00:45:04;;;;;;;14.85;8.68;;;13.70;99.90;;;;;;5095147;28;20480;-67
2021/07/05 00:47:29;;;;;;;14.93;9.10;;;13.60;99.90;;;;;;5094852;28;20031;-66
2021/07/05 00:49:55;;;;;;;12.85;8.60;;;13.60;99.90;;;;;;5093614;28;20424;-67
2021/07/05 00:52:20;;;;;;;12.90;8.30;;;13.60;99.90;;;;;;5094374;28;20572;-67
2021/07/05 00:54:46;;;;;;;16.58;8.85;;;13.50;99.90;;;;;;5094953;28;20020;-66
2021/07/05 00:57:28;;;;;;;12.85;9.38;;;13.50;99.90;;;;;;5094941;28;20028;-66
2021/07/05 00:59:56;;;;;;;13.45;9.23;;;13.50;99.90;;;;;;5094943;28;20020;-67
2021/07/05 01:02:24;;;;;;;13.50;9.60;;;13.50;99.90;;;;;;5094872;28;20052;-66
2021/07/05 01:04:50;;;;;;;12.38;8.73;;;13.50;99.90;;;;;;5076669;28;20032;-67
2021/07/05 01:07:16;;;;;;;14.77;8.40;;;13.40;99.90;;;;;;5093351;28;20024;-67
2021/07/05 01:09:42;;;;;;;19.30;9.95;;;13.40;99.90;;;;;;5093575;28;20099;-67
2021/07/05 01:12:10;;;;;;;13.00;9.32;;;13.40;99.90;;;;;;5094591;28;20032;-66
2021/07/05 01:14:36;;;;;;;18.42;8.95;;;13.40;99.90;;;;;;5094091;28;20110;-66
2021/07/05 01:17:02;;;;;;;17.77;9.30;;;13.50;99.90;;;;;;5094633;28;20047;-66
2021/07/05 01:19:28;;;;;;;12.40;8.10;;;13.40;99.90;;;;;;5094544;28;20016;-67
2021/07/05 01:21:54;;;;;;;12.85;8.50;;;13.40;99.90;;;;;;5093965;28;20024;-66
2021/07/05 01:24:20;;;;;;;13.50;8.43;;;13.30;99.90;;;;;;5092676;28;20028;-66
2021/07/05 01:26:46;;;;;;;11.77;7.90;;;13.30;99.90;;;;;;5094194;28;20020;-66
2021/07/05 01:29:12;;;;;;;16.60;9.07;;;13.20;99.90;;;;;;5094136;28;20466;-67
2021/07/05 01:31:38;;;;;;;13.23;8.85;;;13.20;99.90;;;;;;5094295;28;20028;-66
2021/07/05 01:34:04;;;;;;;14.93;8.63;;;13.20;99.90;;;;;;5094355;28;20373;-66
2021/07/05 01:36:29;;;;;;;20.15;9.45;;;13.10;99.90;;;;;;5094324;28;20016;-66
2021/07/05 01:38:56;;;;;;;18.17;10.55;;;13.10;99.90;;;;;;5094233;28;20424;-67
2021/07/05 01:41:22;;;;;;;20.52;11.07;;;13.10;99.90;;;;;;5094304;28;20019;-67
2021/07/05 01:43:49;;;;;;;16.70;10.45;;;13.10;99.90;;;;;;5092509;28;20072;-67
2021/07/05 01:46:15;;;;;;;14.23;10.30;;;13.20;99.90;;;;;;5092698;28;20126;-66
2021/07/05 01:48:41;;;;;;;20.08;10.73;;;13.10;99.90;;;;;;5094050;28;20052;-67
2021/07/05 01:51:07;;;;;;;16.08;10.68;;;13.00;99.90;;;;;;5092294;28;20073;-66
2021/07/05 01:53:33;;;;;;;17.58;10.98;;;13.00;99.90;;;;;;5093366;28;20052;-67
2021/07/05 01:55:58;;;;;;;15.07;9.88;;;13.00;99.90;;;;;;5094052;28;20016;-67
2021/07/05 01:58:24;;;;;;;16.30;9.63;;;13.00;99.90;;;;;;5093800;28;20031;-67
2021/07/05 02:00:50;;;;;;;16.60;9.60;;;13.00;99.90;;;;;;5094037;28;20024;-66
2021/07/05 02:03:17;;;;;;;19.60;10.63;;;12.90;99.90;;;;;;5094002;28;20410;-67
2021/07/05 02:05:45;;;;;;;16.70;10.02;;;12.90;99.90;;;;;;5094006;28;20032;-66
2021/07/05 02:08:12;;;;;;;25.45;12.68;;;13.00;99.90;;;;;;5093711;28;20025;-66
2021/07/05 02:10:40;;;;;;;19.80;10.88;;;13.00;99.90;;;;;;5093423;28;20422;-67
2021/07/05 02:13:12;;;;;;;19.20;10.00;;;13.00;99.90;;;;;;5092594;28;20373;-66
2021/07/05 02:15:39;;;;;;;21.60;11.68;;;13.00;99.90;;;;;;5093370;28;20016;-66
2021/07/05 02:18:05;;;;;;;18.00;11.20;;;13.00;99.90;;;;;;5093876;28;20073;-66
2021/07/05 02:20:31;;;;;;;23.33;11.50;;;13.00;99.90;;;;;;5093598;28;20024;-67
2021/07/05 02:22:58;;;;;;;20.45;11.35;;;12.90;99.90;;;;;;5092336;28;20032;-66
2021/07/05 02:25:27;;;;;;;21.20;10.93;;;12.90;99.90;;;;;;5093841;28;20058;-66
2021/07/05 02:27:57;;;;;;;23.63;11.43;;;13.00;99.90;;;;;;5093854;28;20031;-66
2021/07/05 02:30:25;;;;;;;23.02;11.77;;;12.90;99.90;;;;;;5093771;28;20032;-67
2021/07/05 02:32:52;;;;;;;27.25;12.43;;;12.90;99.90;;;;;;5093675;28;20027;-66
2021/07/05 02:35:20;;;;;;;25.77;11.75;;;12.90;99.90;;;;;;5091924;28;20065;-66
2021/07/05 02:37:48;;;;;;;18.13;11.50;;;13.00;99.90;;;;;;5093390;28;20359;-67
2021/07/05 02:40:18;;;;;;;19.50;10.93;;;13.00;99.90;;;;;;5093408;28;20491;-67
2021/07/05 02:42:44;;;;;;;19.00;11.00;;;13.00;99.90;;;;;;5093387;28;20016;-66
2021/07/05 02:45:14;;;;;;;20.60;11.10;;;13.00;99.90;;;;;;5091844;28;20024;-67
2021/07/05 02:47:40;;;;;;;18.17;11.23;;;12.90;99.90;;;;;;5093613;28;20024;-67
2021/07/05 02:50:07;;;;;;;21.88;11.05;;;12.80;99.90;;;;;;5093549;28;20078;-66
2021/07/05 02:52:33;;;;;;;17.73;10.55;;;12.80;99.90;;;;;;5093044;28;20040;-66
2021/07/05 02:54:59;;;;;;;20.88;10.88;;;12.80;99.90;;;;;;5093578;28;20020;-66
2021/07/05 02:57:31;;;;;;;19.92;10.65;;;12.80;99.90;;;;;;5092935;28;20025;-66
2021/07/05 03:00:01;;;;;;;20.38;10.73;;;12.80;99.90;;;;;;5094470;28;20024;-67
2021/07/05 03:02:30;;;;;;;19.17;11.05;;;12.80;99.90;;;;;;5096922;28;20028;-66
2021/07/05 03:04:57;;;;;;;15.63;10.60;;;12.80;99.90;;;;;;5096943;28;20055;-66
2021/07/05 03:07:22;;;;;;;18.73;11.43;;;12.80;99.90;;;;;;5096824;28;20373;-67
2021/07/05 03:09:48;;;;;;;20.00;10.23;;;12.90;99.90;;;;;;5096761;28;20028;-67
2021/07/05 03:12:13;;;;;;;16.33;10.30;;;12.80;99.90;;;;;;5096917;28;20442;-66
2021/07/05 03:14:39;;;;;;;15.77;10.23;;;12.80;99.90;;;;;;5096936;28;20035;-67
2021/07/05 03:17:04;;;;;;;14.98;10.40;;;12.80;99.90;;;;;;5095688;28;20469;-66
2021/07/05 03:19:30;;;;;;;17.63;10.95;;;12.80;99.90;;;;;;5096841;28;20107;-66
2021/07/05 03:21:56;;;;;;;19.92;11.20;;;12.90;99.90;;;;;;5095037;28;20134;-66
2021/07/05 03:24:21;;;;;;;16.20;10.02;;;12.90;99.90;;;;;;5096782;28;20028;-66
2021/07/05 03:26:47;;;;;;;15.98;10.18;;;12.90;99.90;;;;;;5095234;28;20028;-66
2021/07/05 03:29:12;;;;;;;18.02;10.50;;;13.00;99.90;;;;;;5096683;28;20024;-66
2021/07/05 03:31:38;;;;;;;19.27;11.15;;;13.00;99.90;;;;;;5095015;28;20532;-66
2021/07/05 03:34:04;;;;;;;16.52;10.52;;;12.90;99.90;;;;;;5096584;28;20027;-66
2021/07/05 03:36:29;;;;;;;15.88;10.57;;;13.00;99.90;;;;;;5096249;28;20028;-67
2021/07/05 03:38:55;;;;;;;17.73;9.77;;;13.00;99.90;;;;;;5096188;28;20378;-67
2021/07/05 03:41:20;;;;;;;17.85;10.77;;;13.00;99.90;;;;;;5096407;28;20373;-66
2021/07/05 03:43:46;;;;;;;15.57;10.32;;;13.00;99.90;;;;;;5096366;28;20406;-67
2021/07/05 03:46:12;;;;;;;18.95;11.05;;;13.10;99.90;;;;;;5095795;28;20029;-66
2021/07/05 03:48:37;;;;;;;15.00;10.32;;;13.10;99.90;;;;;;5095649;28;20030;-66
2021/07/05 03:51:03;;;;;;;14.90;9.80;;;13.10;99.90;;;;;;5094740;28;20024;-66
2021/07/05 03:53:28;;;;;;;16.45;10.40;;;13.10;99.90;;;;;;5095439;28;20048;-66
2021/07/05 03:55:54;;;;;;;15.48;9.45;;;13.20;99.90;;;;;;5095776;28;20541;-67
2021/07/05 03:58:20;;;;;;;21.75;10.07;;;13.30;99.90;;;;;;5094930;28;20103;-67
2021/07/05 04:00:45;;;;;;;17.00;9.00;;;13.30;99.90;;;;;;5095999;28;20034;-67
2021/07/05 04:03:11;;;;;;;13.25;9.68;;;13.40;99.90;;;;;;5096022;28;20028;-67
2021/07/05 04:05:37;;;;;;;17.27;10.05;;;13.40;99.90;;;;;;5095668;28;20028;-66
2021/07/05 04:08:04;;;;;;;20.70;10.15;;;13.50;99.90;;;;;;5094090;28;20028;-67
2021/07/05 04:10:31;;;;;;;17.98;10.13;;;13.50;99.90;;;;;;5094040;28;20362;-67
2021/07/05 04:12:57;;;;;;;13.05;8.80;;;13.60;99.90;;;;;;5095723;28;20505;-66
2021/07/05 04:15:23;;;;;;;15.23;8.93;;;13.70;99.90;;;;;;5095760;28;20028;-67
2021/07/05 04:17:49;;;;;;;12.05;8.85;;;13.80;99.90;;;;;;5095685;28;20024;-67
2021/07/05 04:20:18;;;;;;;16.02;8.40;;;13.90;99.90;;;;;;5095648;28;20028;-67
2021/07/05 04:22:44;;;;;;;12.90;7.50;;;14.00;99.90;;;;;;5095618;28;20078;-67
2021/07/05 04:25:10;;;;;;;15.25;8.00;;;14.20;99.90;;;;;;5095306;28;20075;-67
2021/07/05 04:27:36;;;;;;;13.02;8.00;;;14.20;99.90;;;;;;5095246;28;20028;-66
2021/07/05 04:30:05;;;;;;;15.40;7.88;;;14.40;99.90;;;;;;5095443;28;20032;-67
2021/07/05 04:32:31;;;;;;;15.25;7.15;;;14.80;99.90;;;;;;5093902;28;20107;-67
2021/07/05 04:34:56;;;;;;;17.50;6.93;;;15.10;99.90;;;;;;5093573;28;20063;-67
2021/07/05 04:37:22;;;;;;;13.18;6.45;;;15.50;99.90;;;;;;5095061;28;20074;-67
2021/07/05 04:39:48;;;;;;;7.97;5.25;;;15.90;99.90;;;;;;5095049;28;20130;-67
2021/07/05 04:42:14;;;;;;;7.07;4.82;;;16.60;99.90;;;;;;5094732;28;20106;-68
2021/07/05 04:44:40;;;;;;;6.38;4.35;;;17.70;99.90;;;;;;5094658;28;20024;-68
2021/07/05 04:47:06;;;;;;;10.10;4.03;;;18.90;99.90;;;;;;5094152;28;20094;-68
2021/07/05 04:49:32;;;;;;;6.32;4.15;;;19.70;99.90;;;;;;5094572;28;20089;-68
2021/07/05 04:51:58;;;;;;;4.10;3.67;;;19.40;99.90;;;;;;5093326;28;20084;-68
2021/07/05 04:54:24;;;;;;;6.60;4.30;;;18.80;99.90;;;;;;5094479;28;20442;-67
2021/07/05 04:56:50;;;;;;;9.90;3.28;;;18.20;99.90;;;;;;5094433;28;20038;-67
2021/07/05 04:59:16;;;;;;;10.13;4.07;;;18.00;99.90;;;;;;5093937;28;20446;-67
2021/07/05 05:01:45;;;;;;;7.88;4.60;;;17.80;99.90;;;;;;5093117;28;20407;-67
2021/07/05 05:04:11;;;;;;;7.72;3.78;;;17.50;99.90;;;;;;5094858;28;20095;-67
2021/07/05 05:06:36;;;;;;;5.32;4.28;;;17.30;99.90;;;;;;5093654;28;20055;-67
2021/07/05 05:09:02;;;;;;;8.88;4.45;;;17.30;99.90;;;;;;5093615;28;20026;-67
2021/07/05 05:11:28;;;;;;;9.88;4.22;;;17.10;99.90;;;;;;5094712;28;20020;-67
2021/07/05 05:13:54;;;;;;;8.25;3.88;;;17.10;99.90;;;;;;5094307;28;20039;-68
2021/07/05 05:16:20;;;;;;;9.10;4.55;;;17.00;99.90;;;;;;5093217;28;20095;-67
2021/07/05 05:18:45;;;;;;;7.93;4.47;;;16.90;99.90;;;;;;5094584;28;20055;-67
2021/07/05 05:21:11;;;;;;;7.32;4.78;;;16.70;99.90;;;;;;5094242;28;20031;-67
2021/07/05 05:23:37;;;;;;;8.52;4.63;;;16.70;99.90;;;;;;5093762;28;20024;-67
2021/07/05 05:26:02;;;;;;;7.03;4.75;;;16.70;99.90;;;;;;5093917;28;20057;-67
2021/07/05 05:28:28;;;;;;;7.05;4.88;;;16.70;99.90;;;;;;5092966;28;20032;-67
2021/07/05 05:30:54;;;;;;;6.68;4.50;;;16.60;99.90;;;;;;5094384;28;20024;-67
2021/07/05 05:33:20;;;;;;;12.95;5.45;;;16.60;99.90;;;;;;5093999;28;20028;-67
2021/07/05 05:35:45;;;;;;;9.27;5.15;;;16.50;99.90;;;;;;5094290;28;20039;-67
2021/07/05 05:38:11;;;;;;;7.22;5.05;;;16.60;99.90;;;;;;5092596;28;20047;-67
2021/07/05 05:40:36;;;;;;;7.22;5.05;;;16.60;99.90;;;;;;5092334;28;20051;-67
2021/07/05 05:43:04;;;;;;;5.95;5.00;;;16.60;99.90;;;;;;5093846;28;20050;-67
2021/07/05 05:45:30;;;;;;;9.55;5.60;;;16.60;99.90;;;;;;5094020;28;20028;-67
2021/07/05 05:47:55;;;;;;;9.95;5.45;;;16.70;99.90;;;;;;5093248;28;20024;-67
2021/07/05 05:50:22;;;;;;;8.70;4.93;;;16.70;99.90;;;;;;5092786;28;20074;-68
2021/07/05 05:52:47;;;;;;;5.85;4.15;;;16.70;99.90;;;;;;5093217;28;20040;-67
2021/07/05 05:55:14;;;;;;;13.50;4.70;;;16.80;99.90;;;;;;5092649;28;20097;-67
2021/07/05 05:57:39;;;;;;;5.78;4.32;;;16.90;99.90;;;;;;5093122;28;20023;-67
2021/07/05 06:00:15;;;;;;;11.05;5.15;;;16.90;99.90;;;;;;5092151;28;20024;-67
2021/07/05 06:02:40;;;;;;;8.65;4.93;;;16.80;99.90;;;;;;5093561;28;20127;-67
2021/07/05 06:05:07;;;;;;;16.27;5.85;;;16.80;99.90;;;;;;5092741;28;20076;-71
2021/07/05 06:07:32;;;;;;;16.00;4.55;;;16.70;99.90;;;;;;5093676;28;20054;-71
2021/07/05 06:09:58;;;;;;;9.07;4.78;;;16.60;99.90;;;;;;5093888;28;20370;-71
2021/07/05 06:12:23;;;;;;;11.07;5.40;;;16.50;99.90;;;;;;5093751;28;20032;-71
2021/07/05 06:14:49;;;;;;;8.98;5.47;;;16.40;99.90;;;;;;5093534;28;20035;-71
2021/07/05 06:17:14;;;;;;;11.10;5.85;;;16.30;99.90;;;;;;5093666;28;20457;-71
2021/07/05 06:19:40;;;;;;;7.68;5.13;;;16.30;99.90;;;;;;5093963;28;20472;-71
2021/07/05 06:24:51;;;;;;;13.32;6.15;;;16.30;99.90;;;;;;5093433;28;20060;-71
2021/07/05 06:27:17;;;;;;;9.88;6.75;;;16.30;99.90;;;;;;5093566;28;20327;-71
2021/07/05 06:29:43;;;;;;;13.75;7.57;;;16.30;99.90;;;;;;5093887;28;20024;-72
2021/07/05 06:32:09;;;;;;;14.45;6.75;;;16.30;99.90;;;;;;5092382;28;20051;-71
2021/07/05 06:34:34;;;;;;;12.98;7.03;;;16.30;99.90;;;;;;5094130;28;20055;-71
2021/07/05 06:37:00;;;;;;;10.45;6.70;;;16.30;99.90;;;;;;5096606;28;20024;-71
2021/07/05 06:39:26;;;;;;;7.88;5.32;;;16.30;99.90;;;;;;5097476;28;20099;-71
2021/07/05 06:41:51;;;;;;;6.30;5.53;;;16.30;99.90;;;;;;5095759;28;20051;-71
2021/07/05 06:44:18;;;;;;;5.78;4.35;;;16.30;99.90;;;;;;5097378;28;20100;-71
2021/07/05 06:46:44;;;;;;;5.22;4.60;;;16.20;99.90;;;;;;5097212;28;20024;-71
2021/07/05 06:49:14;;;;;;;7.68;4.70;;;16.20;99.90;;;;;;5097328;28;20017;-71
2021/07/05 06:51:40;;;;;;;8.48;4.90;;;16.10;99.90;;;;;;5080125;28;20028;-71
2021/07/05 06:54:05;;;;;;;5.50;4.97;;;16.10;99.90;;;;;;5095687;28;20019;-71
2021/07/05 06:56:31;;;;;;;9.43;5.70;;;16.10;99.90;;;;;;5094665;28;20047;-71
2021/07/05 06:58:56;;;;;;;6.32;4.82;;;16.00;99.90;;;;;;5084905;28;20094;-71
2021/07/05 07:01:22;;;;;;;6.85;5.40;;;16.00;99.90;;;;;;5095235;28;20020;-71
2021/07/05 07:03:47;;;;;;;7.28;5.68;;;15.90;99.90;;;;;;5096427;28;20024;-72
2021/07/05 07:06:13;;;;;;;7.38;6.13;;;15.90;99.90;;;;;;5095013;28;20024;-71
2021/07/05 07:08:39;;;;;;;8.27;7.30;;;15.90;99.90;;;;;;5096570;28;20062;-71
2021/07/05 07:11:04;;;;;;;9.40;6.90;;;15.80;99.90;;;;;;5096321;28;20079;-71
2021/07/05 07:13:30;;;;;;;9.15;7.10;;;15.80;99.90;;;;;;5096611;28;20110;-71
2021/07/05 07:15:57;;;;;;;8.90;7.82;;;15.80;99.90;;;;;;5096372;28;20051;-71
2021/07/05 07:21:06;;;;;;;8.40;7.32;;;15.90;99.90;;;;;;5071289;28;20357;-71
2021/07/05 07:23:32;;;;;;;8.63;7.40;;;16.00;99.90;;;;;;5070124;28;20028;-71
2021/07/05 07:25:58;;;;;;;8.10;7.30;;;15.90;99.90;;;;;;5069357;28;20470;-69
2021/07/05 07:28:23;;;;;;;8.25;7.00;;;15.90;99.90;;;;;;5069847;28;20029;-71
2021/07/05 07:30:49;;;;;;;9.00;7.07;;;15.90;99.90;;;;;;5070453;28;20078;-71
2021/07/05 07:33:16;;;;;;;8.63;7.03;;;15.90;99.90;;;;;;5069854;28;20478;-71
2021/07/05 07:35:41;;;;;;;6.60;6.00;;;15.90;99.90;;;;;;5069750;28;20020;-72
2021/07/05 07:38:07;;;;;;;7.47;6.43;;;15.90;99.90;;;;;;5069420;28;20098;-71
2021/07/05 07:40:37;;;;;;;11.20;6.57;;;15.90;99.90;;;;;;5070178;28;20028;-72
2021/07/05 07:43:02;;;;;;;6.05;5.38;;;15.90;99.90;;;;;;5069804;28;20470;-71
2021/07/05 07:45:28;;;;;;;7.80;5.60;;;15.90;99.90;;;;;;5069938;28;20029;-72
2021/07/05 07:47:54;;;;;;;8.52;5.93;;;15.80;99.90;;;;;;5070036;28;20103;-71
2021/07/05 07:50:20;;;;;;;5.07;4.57;;;15.90;99.90;;;;;;5070226;28;20028;-71
2021/07/05 07:52:46;;;;;;;5.13;4.63;;;16.10;99.90;;;;;;5070055;28;20492;-72
2021/07/05 07:55:14;;;;;;;5.93;5.07;;;16.00;99.90;;;;;;5069176;28;20490;-71
2021/07/05 07:57:41;;;;;;;5.07;4.57;;;16.00;99.90;;;;;;5068371;28;20070;-71
2021/07/05 08:00:09;;;;;;;5.80;5.20;;;16.20;99.90;;;;;;5068286;28;20025;-72
2021/07/05 08:02:34;;;;;;;5.35;4.85;;;16.30;99.90;;;;;;5069231;28;20017;-72
2021/07/05 08:05:00;;;;;;;6.53;5.72;;;16.30;99.90;;;;;;5068094;28;20035;-71
2021/07/05 08:07:25;;;;;;;9.30;5.60;;;16.40;99.90;;;;;;5068656;28;20024;-71
2021/07/05 08:09:53;;;;;;;6.60;6.00;;;16.40;99.90;;;;;;5069188;28;20035;-72
2021/07/05 08:12:19;;;;;;;6.80;5.70;;;16.50;99.90;;;;;;5068989;28;20086;-72
2021/07/05 08:14:44;;;;;;;6.38;5.60;;;16.60;99.90;;;;;;5069576;28;20028;-72
2021/07/05 08:17:10;;;;;;;7.50;6.50;;;16.70;99.90;;;;;;5069326;28;20040;-72
2021/07/05 08:19:36;;;;;;;6.65;6.03;;;16.90;99.90;;;;;;5047794;28;20045;-72
2021/07/05 08:22:02;;;;;;;7.45;6.20;;;17.20;99.90;;;;;;5067758;28;20048;-71
2021/07/05 08:24:27;;;;;;;9.80;8.80;;;17.30;99.90;;;;;;5068661;28;20060;-72
2021/07/05 08:26:53;;;;;;;12.73;10.00;;;17.40;99.90;;;;;;5069111;28;20474;-71
2021/07/05 08:29:18;;;;;;;14.40;10.70;;;17.50;99.90;;;;;;5068813;28;20117;-72
2021/07/05 08:31:44;;;;;;;13.93;10.77;;;17.60;99.90;;;;;;5058600;28;20029;-72
2021/07/05 08:34:09;;;;;;;11.82;10.02;;;17.50;99.90;;;;;;5056161;28;20043;-72
2021/07/05 08:36:39;;;;;;;11.65;10.38;;;17.60;99.90;;;;;;5055774;28;20061;-72
2021/07/05 08:39:05;;;;;;;12.00;9.38;;;17.70;99.90;;;;;;5055398;28;20032;-71
2021/07/05 08:41:30;;;;;;;12.27;10.82;;;17.40;99.90;;;;;;5055352;28;20056;-71
2021/07/05 08:43:56;;;;;;;12.80;9.65;;;17.40;99.90;;;;;;5055619;28;20104;-71
2021/07/05 08:46:24;;;;;;;10.55;7.65;;;17.50;99.90;;;;;;5056280;28;20356;-72
2021/07/05 08:48:50;;;;;;;8.77;7.40;;;17.20;99.90;;;;;;5054922;28;20466;-72
2021/07/05 08:51:19;;;;;;;12.05;7.90;;;17.20;99.90;;;;;;5054399;28;20051;-71
2021/07/05 08:53:46;;;;;;;9.75;7.35;;;16.90;99.90;;;;;;5054661;28;20021;-71
2021/07/05 08:56:13;;;;;;;16.27;8.18;;;17.10;99.90;;;;;;5055759;28;20021;-72
2021/07/05 08:58:40;;;;;;;8.50;6.38;;;17.00;99.90;;;;;;5054537;28;20021;-72
2021/07/05 09:01:09;;;;;;;10.15;7.18;;;17.00;99.90;;;;;;5054916;28;20055;-72
2021/07/05 09:03:35;;;;;;;12.40;7.05;;;17.00;99.90;;;;;;5055132;28;20478;-72
2021/07/05 09:06:22;;;;;;;14.75;6.70;;;17.20;99.90;;;;;;5053720;28;20379;-72
2021/07/05 09:09:09;;;;;;;9.82;6.32;;;17.70;99.90;;;;;;5054698;28;20496;-72
2021/07/05 09:11:40;;;;;;;6.50;5.63;;;18.60;99.90;;;;;;5051799;28;20039;-72
2021/07/05 09:14:13;;;;;;;7.82;5.25;;;19.20;99.90;;;;;;5052877;28;20471;-71
2021/07/05 09:16:39;;;;;;;8.57;5.68;;;19.10;99.90;;;;;;5054846;28;20106;-72
2021/07/05 09:19:18;;;;;;;6.63;5.20;;;18.80;99.90;;;;;;5054909;28;20449;-72
2021/07/05 09:21:47;;;;;;;8.23;5.15;;;19.10;99.90;;;;;;5054611;28;20028;-71
2021/07/05 09:24:13;;;;;;;8.55;5.50;;;19.30;99.90;;;;;;5053740;28;20139;-72
2021/07/05 09:26:43;;;;;;;9.52;5.00;;;19.20;99.90;;;;;;5054367;28;20052;-72
2021/07/05 09:29:23;;;;;;;9.98;5.07;;;19.80;99.90;;;;;;5054973;28;20078;-72
2021/07/05 09:31:55;;;;;;;9.93;6.43;;;20.10;99.90;;;;;;5053758;28;20028;-72
2021/07/05 09:34:25;;;;;;;8.33;5.37;;;20.60;99.90;;;;;;5053411;28;20094;-72
2021/07/05 09:36:54;;;;;;;10.40;5.10;;;20.50;99.90;;;;;;5054468;28;20117;-72
2021/07/05 09:39:22;;;;;;;8.35;5.80;;;20.40;99.90;;;;;;5053431;28;20036;-72
2021/07/05 09:41:50;;;;;;;10.15;5.18;;;20.10;99.90;;;;;;5053682;28;20017;-72
2021/07/05 09:44:19;;;;;;;6.85;5.20;;;19.90;99.90;;;;;;5054081;28;20043;-73
2021/07/05 09:46:57;;;;;;;8.02;5.20;;;19.90;99.90;;;;;;5054786;28;20466;-72
2021/07/05 09:49:33;;;;;;;9.50;5.20;;;19.70;99.90;;;;;;5053497;28;20029;-72
2021/07/05 09:52:24;;;;;;;8.20;4.53;;;20.20;99.90;;;;;;5054724;28;20547;-72
2021/07/05 09:54:52;;;;;;;9.20;3.95;;;22.00;99.90;;;;;;5054680;28;20098;-73
2021/07/05 09:57:36;;;;;;;10.48;3.88;;;23.10;99.90;;;;;;5053347;28;20025;-72
2021/07/05 10:03:03;;;;;;;9.13;3.60;;;22.30;99.90;;;;;;5111694;27;20428;-74
2021/07/05 10:05:32;;;;;;;9.40;4.10;;;23.10;99.90;;;;;;5109827;28;20130;-73
2021/07/05 10:08:09;;;;;;;6.55;3.55;;;23.50;99.90;;;;;;5110734;28;20036;-73
2021/07/05 10:10:38;;;;;;;8.43;3.72;;;23.20;99.90;;;;;;5111044;28;20016;-70
2021/07/05 10:13:08;;;;;;;6.25;3.83;;;22.10;99.90;;;;;;5111546;28;20073;-72
2021/07/05 10:15:34;;;;;;;9.07;4.20;;;20.90;99.90;;;;;;5110648;28;20047;-73
2021/07/05 10:18:00;;;;;;;10.45;4.43;;;20.50;99.90;;;;;;5110056;28;20065;-73
2021/07/05 10:20:30;;;;;;;7.40;4.00;;;20.30;99.90;;;;;;5110708;28;20032;-73
2021/07/05 10:22:58;;;;;;;8.65;4.10;;;20.50;99.90;;;;;;5110441;28;20077;-73
2021/07/05 10:25:26;;;;;;;6.65;4.03;;;21.00;99.90;;;;;;5110890;28;20046;-73
2021/07/05 10:27:52;;;;;;;10.88;4.60;;;21.20;99.90;;;;;;5110528;28;20032;-73
2021/07/05 10:30:19;;;;;;;8.85;4.20;;;21.20;99.90;;;;;;5109903;28;20016;-73
2021/07/05 10:32:47;;;;;;;6.30;3.80;;;21.20;99.90;;;;;;5110522;28;20057;-74
2021/07/05 10:35:15;;;;;;;6.30;3.53;;;21.50;99.90;;;;;;5110298;28;20544;-73
2021/07/05 10:37:54;;;;;;;11.02;4.85;;;22.40;99.90;;;;;;5110107;28;20028;-73
2021/07/05 10:40:25;;;;;;;9.35;4.13;;;22.30;99.90;;;;;;5110443;28;20050;-73
2021/07/05 10:42:56;;;;;;;8.93;4.05;;;21.10;99.90;;;;;;5110245;28;20099;-73
2021/07/05 10:45:39;;;;;;;5.60;3.72;;;21.20;99.90;;;;;;5110211;28;20020;-69
2021/07/05 10:48:04;;;;;;;7.45;4.05;;;21.40;99.90;;;;;;5110021;28;20055;-70
2021/07/05 10:50:49;;;;;;;8.88;4.55;;;21.10;99.90;;;;;;5107197;28;20118;-70
2021/07/05 10:55:53;;;;;;;8.32;4.63;;;20.70;99.90;;;;;;5069608;28;20365;-70
2021/07/05 10:58:27;;;;;;;8.55;4.43;;;20.30;99.90;;;;;;5069529;28;20075;-70
2021/07/05 11:00:56;;;;;;;12.45;4.78;;;20.00;99.90;;;;;;5069321;28;20025;-70
2021/07/05 11:08:53;;;;;;;8.65;4.75;;;20.10;99.90;;;;;;5112449;27;20352;-70
2021/07/05 11:11:25;;;;;;;7.78;4.22;;;20.00;99.90;;;;;;5106409;28;20023;-73
2021/07/05 11:14:16;;;;;;;7.05;3.70;;;20.40;99.90;;;;;;5108814;28;20107;-73
2021/07/05 11:17:22;;;;;;;7.55;3.97;;;20.20;99.90;;;;;;5108637;28;20027;-73
2021/07/05 11:22:29;;;;;;;9.02;3.58;;;20.10;99.90;;;;;;5071087;28;20423;-73
2021/07/05 11:25:21;;;;;;;7.85;3.72;;;20.10;99.90;;;;;;5070627;28;20029;-73
2021/07/05 11:27:52;;;;;;;9.98;3.45;;;20.00;99.90;;;;;;5070638;28;20098;-73
2021/07/05 11:30:26;;;;;;;3.63;2.90;;;20.10;99.90;;;;;;5070795;28;20021;-73
2021/07/05 11:32:59;;;;;;;9.32;3.28;;;20.20;99.90;;;;;;5070166;28;20020;-73
2021/07/05 11:35:29;;;;;;;8.18;3.47;;;20.30;99.90;;;;;;5070650;28;20023;-73
2021/07/05 11:37:58;;;;;;;5.32;2.90;;;20.70;99.90;;;;;;5069898;28;20013;-73
2021/07/05 11:41:03;;;;;;;6.03;3.38;;;20.80;99.90;;;;;;5070120;28;20078;-73
2021/07/05 11:43:56;;;;;;;9.00;2.88;;;21.00;99.90;;;;;;5070254;28;20039;-74
2021/07/05 11:49:18;;;;;;;9.60;3.35;;;21.10;99.90;;;;;;5111930;27;20359;-73
2021/07/05 11:52:00;;;;;;;6.80;2.67;;;21.90;99.90;;;;;;5109784;28;20019;-73
2021/07/05 11:54:33;;;;;;;6.18;2.90;;;21.30;99.90;;;;;;5110878;28;20115;-71
2021/07/05 11:57:01;;;;;;;7.93;3.20;;;21.40;99.90;;;;;;5111519;28;20389;-72
2021/07/05 11:59:32;;;;;;;9.00;3.00;;;21.50;99.90;;;;;;5110645;28;20485;-72
2021/07/05 12:02:09;;;;;;;12.45;3.33;;;21.60;99.90;;;;;;5111036;28;20032;-72
2021/07/05 12:04:37;;;;;;;10.93;3.90;;;21.60;99.90;;;;;;5111333;28;20026;-72
2021/07/05 12:07:05;;;;;;;10.45;7.13;;;21.90;99.90;;;;;;5110185;28;20028;-72
2021/07/05 12:09:32;;;;;;;5.32;3.47;;;21.70;99.90;;;;;;5108708;28;20035;-72
2021/07/05 12:12:07;;;;;;;6.82;2.80;;;22.10;99.90;;;;;;5110459;28;20020;-71
2021/07/05 12:14:32;;;;;;;8.15;2.80;;;22.30;99.90;;;;;;5109664;28;20024;-71
2021/07/05 12:17:00;;;;;;;5.65;2.85;;;22.60;99.90;;;;;;5110875;28;20177;-72
2021/07/05 12:19:29;;;;;;;4.10;3.25;;;22.60;99.90;;;;;;5111140;28;20078;-72
2021/07/05 12:22:02;;;;;;;7.00;2.60;;;22.60;99.90;;;;;;5109246;28;20087;-73
2021/07/05 12:24:33;;;;;;;5.78;3.15;;;22.70;99.90;;;;;;5110367;28;20055;-72
2021/07/05 12:27:02;;;;;;;7.13;3.08;;;22.50;99.90;;;;;;5110373;28;20384;-72
2021/07/05 12:29:34;;;;;;;5.82;3.40;;;22.10;99.90;;;;;;5109646;28;20027;-72
2021/07/05 12:37:26;;;;;;;7.72;2.97;;;22.50;99.90;;;;;;5090333;27;20439;-69
2021/07/05 12:40:00;;;;;;;9.57;2.97;;;22.80;99.90;;;;;;5077253;28;20390;-68
2021/07/05 12:42:33;;;;;;;6.63;2.80;;;22.50;99.90;;;;;;5074856;28;20017;-67
2021/07/05 12:45:00;;;;;;;9.40;2.83;;;22.60;99.90;;;;;;5064322;28;20055;-68
2021/07/05 12:47:26;;;;;;;8.38;2.80;;;22.70;99.90;;;;;;5087402;28;20108;-69
2021/07/05 12:49:53;;;;;;;6.47;2.60;;;22.90;99.90;;;;;;5073243;28;20099;-68
2021/07/05 12:52:19;;;;;;;5.68;2.80;;;23.00;99.90;;;;;;5067500;28;20032;-68
2021/07/05 12:54:46;;;;;;;9.73;3.30;;;23.00;99.90;;;;;;5079839;28;20027;-68
2021/07/05 12:57:15;;;;;;;5.70;3.08;;;22.60;99.90;;;;;;5076219;28;20381;-69
2021/07/05 12:59:59;;;;;;;5.45;3.22;;;22.60;99.90;;;;;;5070575;28;20028;-68
2021/07/05 13:02:27;;;;;;;4.75;2.95;;;22.60;99.90;;;;;;5052430;28;20474;-69
2021/07/05 13:05:12;;;;;;;5.10;2.90;;;22.80;99.90;;;;;;5070695;28;20063;-69
2021/07/05 13:07:38;;;;;;;4.97;3.00;;;22.60;99.90;;;;;;5063746;28;20085;-68
2021/07/05 13:10:07;;;;;;;6.10;3.22;;;22.30;99.90;;;;;;5090824;28;20012;-68
2021/07/05 13:12:34;;;;;;;6.07;3.50;;;22.30;99.90;;;;;;5090038;28;20070;-69